Terminal Aerodrome Forecast
Issued by NWS

Home | Current Version | Previous Version | Text Only | Print | Product List | Glossary Off
Versions: 1 2 3 4 5 6 7 8 9 10 11 12 13 14 15 16 17 18 19 20 21 22 23 24 25 26 27 28

000
FTUS43 KABR 310700 AAA
TAFATY
TAF AMD
KATY 310735Z 3108/0106 15011KT P6SM BKN200
      TEMPO 3108/3109 P6SM -TSRA BKN050CB
     FM311500 22014KT P6SM BKN040
     FM312200 27013KT P6SM VCTS SCT040CB BKN060
     FM010200 29010KT P6SM VCSH BKN050=

USA.gov is the U.S. government's official web portal to all federal, state and local government web resources and services.